sensor_id;sensor_type;location;lat;lon;timestamp;temperature;humidity
2130;DHT22;1071;52.544;13.374;2023-10-31T00:00:16;15.00;99.90
2130;DHT22;1071;52.544;13.374;2023-10-31T00:02:43;14.90;99.90
2130;DHT22;1071;52.544;13.374;2023-10-31T00:05:10;15.00;99.90
2130;DHT22;1071;52.544;13.374;2023-10-31T00:07:58;15.00;99.90
2130;DHT22;1071;52.544;13.374;2023-10-31T00:10:41;15.00;99.90
2130;DHT22;1071;52.544;13.374;2023-10-31T00:13:10;15.00;99.90
2130;DHT22;1071;52.544;13.374;2023-10-31T00:15:37;15.00;99.90
2130;DHT22;1071;52.544;13.374;2023-10-31T00:18:05;15.00;99.90
2130;DHT22;1071;52.544;13.374;2023-10-31T00:20:32;15.00;99.90
2130;DHT22;1071;52.544;13.374;2023-10-31T00:23:00;15.00;99.90
2130;DHT22;1071;52.544;13.374;2023-10-31T00:25:27;15.00;99.90
2130;DHT22;1071;52.544;13.374;2023-10-31T00:27:58;15.00;99.90
2130;DHT22;1071;52.544;13.374;2023-10-31T00:30:37;15.00;99.90
2130;DHT22;1071;52.544;13.374;2023-10-31T00:33:40;15.00;99.90
2130;DHT22;1071;52.544;13.374;2023-10-31T00:36:11;15.00;99.90
2130;DHT22;1071;52.544;13.374;2023-10-31T00:39:02;15.00;99.90
2130;DHT22;1071;52.544;13.374;2023-10-31T00:41:36;15.00;99.90
2130;DHT22;1071;52.544;13.374;2023-10-31T00:44:14;15.00;99.90
2130;DHT22;1071;52.544;13.374;2023-10-31T00:46:47;15.00;99.90
2130;DHT22;1071;52.544;13.374;2023-10-31T00:49:33;15.00;99.90
2130;DHT22;1071;52.544;13.374;2023-10-31T00:52:02;15.00;99.90
2130;DHT22;1071;52.544;13.374;2023-10-31T00:54:29;15.00;99.90
2130;DHT22;1071;52.544;13.374;2023-10-31T00:56:56;15.00;99.90
2130;DHT22;1071;52.544;13.374;2023-10-31T00:59:24;15.00;99.90
2130;DHT22;1071;52.544;13.374;2023-10-31T01:01:51;15.00;99.90
2130;DHT22;1071;52.544;13.374;2023-10-31T01:04:21;15.00;99.90
2130;DHT22;1071;52.544;13.374;2023-10-31T01:06:49;15.00;99.90
2130;DHT22;1071;52.544;13.374;2023-10-31T01:09:16;15.00;99.90
2130;DHT22;1071;52.544;13.374;2023-10-31T01:11:43;15.00;99.90
2130;DHT22;1071;52.544;13.374;2023-10-31T01:14:10;15.00;99.90
2130;DHT22;1071;52.544;13.374;2023-10-31T01:16:39;15.00;99.90
2130;DHT22;1071;52.544;13.374;2023-10-31T01:19:09;15.00;99.90
2130;DHT22;1071;52.544;13.374;2023-10-31T01:21:36;15.00;99.90
2130;DHT22;1071;52.544;13.374;2023-10-31T01:24:04;14.90;99.90
2130;DHT22;1071;52.544;13.374;2023-10-31T01:26:31;14.90;99.90
2130;DHT22;1071;52.544;13.374;2023-10-31T01:29:05;14.90;99.90
2130;DHT22;1071;52.544;13.374;2023-10-31T01:32:03;14.90;99.90
2130;DHT22;1071;52.544;13.374;2023-10-31T01:34:31;14.90;99.90
2130;DHT22;1071;52.544;13.374;2023-10-31T01:36:57;14.90;99.90
2130;DHT22;1071;52.544;13.374;2023-10-31T01:39:24;14.90;99.90
2130;DHT22;1071;52.544;13.374;2023-10-31T01:41:51;14.90;99.90
2130;DHT22;1071;52.544;13.374;2023-10-31T01:44:20;14.90;99.90
2130;DHT22;1071;52.544;13.374;2023-10-31T01:46:47;14.90;99.90
2130;DHT22;1071;52.544;13.374;2023-10-31T01:49:15;14.80;99.90
2130;DHT22;1071;52.544;13.374;2023-10-31T01:51:44;14.80;99.90
2130;DHT22;1071;52.544;13.374;2023-10-31T01:54:14;14.80;99.90
2130;DHT22;1071;52.544;13.374;2023-10-31T01:56:42;14.70;99.90
2130;DHT22;1071;52.544;13.374;2023-10-31T01:59:10;14.70;99.90
2130;DHT22;1071;52.544;13.374;2023-10-31T02:01:38;14.70;99.90
2130;DHT22;1071;52.544;13.374;2023-10-31T02:04:07;14.70;99.90
2130;DHT22;1071;52.544;13.374;2023-10-31T02:06:37;14.70;99.90
2130;DHT22;1071;52.544;13.374;2023-10-31T02:09:04;14.70;99.90
2130;DHT22;1071;52.544;13.374;2023-10-31T02:11:31;14.70;99.90
2130;DHT22;1071;52.544;13.374;2023-10-31T02:13:58;14.70;99.90
2130;DHT22;1071;52.544;13.374;2023-10-31T02:16:26;14.70;99.90
2130;DHT22;1071;52.544;13.374;2023-10-31T02:18:53;14.70;99.90
2130;DHT22;1071;52.544;13.374;2023-10-31T02:21:20;14.70;99.90
2130;DHT22;1071;52.544;13.374;2023-10-31T02:23:57;14.60;99.90
2130;DHT22;1071;52.544;13.374;2023-10-31T02:26:34;14.60;99.90
2130;DHT22;1071;52.544;13.374;2023-10-31T02:29:01;14.60;99.90
2130;DHT22;1071;52.544;13.374;2023-10-31T02:31:29;14.60;99.90
2130;DHT22;1071;52.544;13.374;2023-10-31T02:33:58;14.60;99.90
2130;DHT22;1071;52.544;13.374;2023-10-31T02:36:25;14.60;99.90
2130;DHT22;1071;52.544;13.374;2023-10-31T02:38:52;14.60;99.90
2130;DHT22;1071;52.544;13.374;2023-10-31T02:41:20;14.60;99.90
2130;DHT22;1071;52.544;13.374;2023-10-31T02:43:47;14.60;99.90
2130;DHT22;1071;52.544;13.374;2023-10-31T02:46:14;14.50;99.90
2130;DHT22;1071;52.544;13.374;2023-10-31T02:48:41;14.50;99.90
2130;DHT22;1071;52.544;13.374;2023-10-31T02:51:08;14.50;99.90
2130;DHT22;1071;52.544;13.374;2023-10-31T02:53:36;14.50;99.90
2130;DHT22;1071;52.544;13.374;2023-10-31T02:56:03;14.50;99.90
2130;DHT22;1071;52.544;13.374;2023-10-31T02:58:32;14.50;99.90
2130;DHT22;1071;52.544;13.374;2023-10-31T03:00:59;14.50;99.90
2130;DHT22;1071;52.544;13.374;2023-10-31T03:03:26;14.50;99.90
2130;DHT22;1071;52.544;13.374;2023-10-31T03:05:52;14.40;99.90
2130;DHT22;1071;52.544;13.374;2023-10-31T03:08:19;14.40;99.90
2130;DHT22;1071;52.544;13.374;2023-10-31T03:10:48;14.40;99.90
2130;DHT22;1071;52.544;13.374;2023-10-31T03:13:20;14.40;99.90
2130;DHT22;1071;52.544;13.374;2023-10-31T03:15:48;14.40;99.90
2130;DHT22;1071;52.544;13.374;2023-10-31T03:18:15;14.40;99.90
2130;DHT22;1071;52.544;13.374;2023-10-31T03:20:44;14.40;99.90
2130;DHT22;1071;52.544;13.374;2023-10-31T03:23:13;14.40;99.90
2130;DHT22;1071;52.544;13.374;2023-10-31T03:25:41;14.40;99.90
2130;DHT22;1071;52.544;13.374;2023-10-31T03:28:19;14.40;99.90
2130;DHT22;1071;52.544;13.374;2023-10-31T03:30:50;14.40;99.90
2130;DHT22;1071;52.544;13.374;2023-10-31T03:33:17;14.40;99.90
2130;DHT22;1071;52.544;13.374;2023-10-31T03:35:44;14.30;99.90
2130;DHT22;1071;52.544;13.374;2023-10-31T03:38:11;14.40;99.90
2130;DHT22;1071;52.544;13.374;2023-10-31T03:40:38;14.30;99.90
2130;DHT22;1071;52.544;13.374;2023-10-31T03:43:05;14.30;99.90
2130;DHT22;1071;52.544;13.374;2023-10-31T03:45:34;14.30;99.90
2130;DHT22;1071;52.544;13.374;2023-10-31T03:48:02;14.40;99.90
2130;DHT22;1071;52.544;13.374;2023-10-31T03:50:42;14.30;99.90
2130;DHT22;1071;52.544;13.374;2023-10-31T03:53:09;14.30;99.90
2130;DHT22;1071;52.544;13.374;2023-10-31T03:55:36;14.20;99.90
2130;DHT22;1071;52.544;13.374;2023-10-31T03:58:03;14.30;99.90
2130;DHT22;1071;52.544;13.374;2023-10-31T04:00:31;14.30;99.90
2130;DHT22;1071;52.544;13.374;2023-10-31T04:02:58;14.30;99.90
2130;DHT22;1071;52.544;13.374;2023-10-31T04:05:26;14.30;99.90
2130;DHT22;1071;52.544;13.374;2023-10-31T04:07:53;14.30;99.90
2130;DHT22;1071;52.544;13.374;2023-10-31T04:10:20;14.30;99.90
2130;DHT22;1071;52.544;13.374;2023-10-31T04:12:48;14.30;99.90
2130;DHT22;1071;52.544;13.374;2023-10-31T04:15:14;14.30;99.90
2130;DHT22;1071;52.544;13.374;2023-10-31T04:17:41;14.30;99.90
2130;DHT22;1071;52.544;13.374;2023-10-31T04:20:09;14.30;99.90
2130;DHT22;1071;52.544;13.374;2023-10-31T04:22:38;14.30;99.90
2130;DHT22;1071;52.544;13.374;2023-10-31T04:25:05;14.30;99.90
2130;DHT22;1071;52.544;13.374;2023-10-31T04:27:32;14.30;99.90
2130;DHT22;1071;52.544;13.374;2023-10-31T04:29:59;14.40;99.90
2130;DHT22;1071;52.544;13.374;2023-10-31T04:32:26;14.40;99.90
2130;DHT22;1071;52.544;13.374;2023-10-31T04:34:54;14.40;99.90
2130;DHT22;1071;52.544;13.374;2023-10-31T04:37:22;14.40;99.90
2130;DHT22;1071;52.544;13.374;2023-10-31T04:39:59;14.30;99.90
2130;DHT22;1071;52.544;13.374;2023-10-31T04:42:26;14.30;99.90
2130;DHT22;1071;52.544;13.374;2023-10-31T04:44:53;14.30;99.90
2130;DHT22;1071;52.544;13.374;2023-10-31T04:47:21;14.30;99.90
2130;DHT22;1071;52.544;13.374;2023-10-31T04:49:48;14.30;99.90
2130;DHT22;1071;52.544;13.374;2023-10-31T04:52:16;14.30;99.90
2130;DHT22;1071;52.544;13.374;2023-10-31T04:54:48;14.30;99.90
2130;DHT22;1071;52.544;13.374;2023-10-31T04:57:16;14.30;99.90
2130;DHT22;1071;52.544;13.374;2023-10-31T04:59:43;14.30;99.90
2130;DHT22;1071;52.544;13.374;2023-10-31T05:02:21;14.30;99.90
2130;DHT22;1071;52.544;13.374;2023-10-31T05:04:49;14.30;99.90
2130;DHT22;1071;52.544;13.374;2023-10-31T05:07:17;14.30;99.90
2130;DHT22;1071;52.544;13.374;2023-10-31T05:09:43;14.30;99.90
2130;DHT22;1071;52.544;13.374;2023-10-31T05:12:10;14.30;99.90
2130;DHT22;1071;52.544;13.374;2023-10-31T05:14:40;14.30;99.90
2130;DHT22;1071;52.544;13.374;2023-10-31T05:17:07;14.30;99.90
2130;DHT22;1071;52.544;13.374;2023-10-31T05:19:33;14.30;99.90
2130;DHT22;1071;52.544;13.374;2023-10-31T05:22:00;14.40;99.90
2130;DHT22;1071;52.544;13.374;2023-10-31T05:24:30;14.40;99.90
2130;DHT22;1071;52.544;13.374;2023-10-31T05:26:58;14.40;99.90
2130;DHT22;1071;52.544;13.374;2023-10-31T05:29:24;14.40;99.90
2130;DHT22;1071;52.544;13.374;2023-10-31T05:31:53;14.40;99.90
2130;DHT22;1071;52.544;13.374;2023-10-31T05:34:20;14.40;99.90
2130;DHT22;1071;52.544;13.374;2023-10-31T05:36:47;14.40;99.90
2130;DHT22;1071;52.544;13.374;2023-10-31T05:39:14;14.40;99.90
2130;DHT22;1071;52.544;13.374;2023-10-31T05:41:42;14.40;99.90
2130;DHT22;1071;52.544;13.374;2023-10-31T05:44:09;14.40;99.90
2130;DHT22;1071;52.544;13.374;2023-10-31T05:46:37;14.40;99.90
2130;DHT22;1071;52.544;13.374;2023-10-31T05:49:07;14.40;99.90
2130;DHT22;1071;52.544;13.374;2023-10-31T05:51:34;14.40;99.90
2130;DHT22;1071;52.544;13.374;2023-10-31T05:54:02;14.40;99.90
2130;DHT22;1071;52.544;13.374;2023-10-31T05:56:29;14.40;99.90
2130;DHT22;1071;52.544;13.374;2023-10-31T05:58:56;14.40;99.90
2130;DHT22;1071;52.544;13.374;2023-10-31T06:01:23;14.40;99.90
2130;DHT22;1071;52.544;13.374;2023-10-31T06:03:49;14.40;99.90
2130;DHT22;1071;52.544;13.374;2023-10-31T06:06:18;14.40;99.90
2130;DHT22;1071;52.544;13.374;2023-10-31T06:08:45;14.40;99.90
2130;DHT22;1071;52.544;13.374;2023-10-31T06:11:21;14.40;99.90
2130;DHT22;1071;52.544;13.374;2023-10-31T06:13:48;14.50;99.90
2130;DHT22;1071;52.544;13.374;2023-10-31T06:16:15;14.50;99.90
2130;DHT22;1071;52.544;13.374;2023-10-31T06:18:42;14.50;99.90
2130;DHT22;1071;52.544;13.374;2023-10-31T06:21:09;14.50;99.90
2130;DHT22;1071;52.544;13.374;2023-10-31T06:23:37;14.50;99.90
2130;DHT22;1071;52.544;13.374;2023-10-31T06:26:05;14.50;99.90
2130;DHT22;1071;52.544;13.374;2023-10-31T06:28:32;14.50;99.90
2130;DHT22;1071;52.544;13.374;2023-10-31T06:31:00;14.50;99.90
2130;DHT22;1071;52.544;13.374;2023-10-31T06:33:28;14.50;99.90
2130;DHT22;1071;52.544;13.374;2023-10-31T06:35:55;14.50;99.90
2130;DHT22;1071;52.544;13.374;2023-10-31T06:38:22;14.50;99.90
2130;DHT22;1071;52.544;13.374;2023-10-31T06:40:51;14.60;99.90
2130;DHT22;1071;52.544;13.374;2023-10-31T06:43:22;14.60;99.90
2130;DHT22;1071;52.544;13.374;2023-10-31T06:45:49;14.60;99.90
2130;DHT22;1071;52.544;13.374;2023-10-31T06:48:16;14.60;99.90
2130;DHT22;1071;52.544;13.374;2023-10-31T06:50:43;14.60;99.90
2130;DHT22;1071;52.544;13.374;2023-10-31T06:53:10;14.60;99.90
2130;DHT22;1071;52.544;13.374;2023-10-31T06:55:40;14.60;99.90
2130;DHT22;1071;52.544;13.374;2023-10-31T06:58:09;14.70;99.90
2130;DHT22;1071;52.544;13.374;2023-10-31T07:00:36;14.60;99.90
2130;DHT22;1071;52.544;13.374;2023-10-31T07:03:03;14.60;99.90
2130;DHT22;1071;52.544;13.374;2023-10-31T07:05:34;14.70;99.90
2130;DHT22;1071;52.544;13.374;2023-10-31T07:08:01;14.70;99.90
2130;DHT22;1071;52.544;13.374;2023-10-31T07:10:32;14.60;99.90
2130;DHT22;1071;52.544;13.374;2023-10-31T07:13:05;14.70;99.90
2130;DHT22;1071;52.544;13.374;2023-10-31T07:15:33;14.60;99.90
2130;DHT22;1071;52.544;13.374;2023-10-31T07:18:04;14.70;99.90
2130;DHT22;1071;52.544;13.374;2023-10-31T07:20:34;14.70;99.90
2130;DHT22;1071;52.544;13.374;2023-10-31T07:23:01;14.70;99.90
2130;DHT22;1071;52.544;13.374;2023-10-31T07:25:28;14.70;99.90
2130;DHT22;1071;52.544;13.374;2023-10-31T07:27:55;14.70;99.90
2130;DHT22;1071;52.544;13.374;2023-10-31T07:30:22;14.80;99.90
2130;DHT22;1071;52.544;13.374;2023-10-31T07:32:50;14.80;99.90
2130;DHT22;1071;52.544;13.374;2023-10-31T07:35:17;14.70;99.90
2130;DHT22;1071;52.544;13.374;2023-10-31T07:37:45;14.70;99.90
2130;DHT22;1071;52.544;13.374;2023-10-31T07:40:15;14.70;99.90
2130;DHT22;1071;52.544;13.374;2023-10-31T07:42:42;14.70;99.90
2130;DHT22;1071;52.544;13.374;2023-10-31T07:45:18;14.70;99.90
2130;DHT22;1071;52.544;13.374;2023-10-31T07:47:45;14.70;99.90
2130;DHT22;1071;52.544;13.374;2023-10-31T07:50:14;14.70;99.90
2130;DHT22;1071;52.544;13.374;2023-10-31T07:52:41;14.70;99.90
2130;DHT22;1071;52.544;13.374;2023-10-31T07:55:09;14.60;99.90
2130;DHT22;1071;52.544;13.374;2023-10-31T07:57:36;14.70;99.90
2130;DHT22;1071;52.544;13.374;2023-10-31T08:00:09;14.60;99.90
2130;DHT22;1071;52.544;13.374;2023-10-31T08:02:37;14.60;99.90
2130;DHT22;1071;52.544;13.374;2023-10-31T08:05:06;14.60;99.90
2130;DHT22;1071;52.544;13.374;2023-10-31T08:07:34;14.60;99.90
2130;DHT22;1071;52.544;13.374;2023-10-31T08:10:01;14.60;99.90
2130;DHT22;1071;52.544;13.374;2023-10-31T08:12:29;14.60;99.90
2130;DHT22;1071;52.544;13.374;2023-10-31T08:14:56;14.60;99.90
2130;DHT22;1071;52.544;13.374;2023-10-31T08:17:27;14.60;99.90
2130;DHT22;1071;52.544;13.374;2023-10-31T08:20:05;14.60;99.90
2130;DHT22;1071;52.544;13.374;2023-10-31T08:22:33;14.60;99.90
2130;DHT22;1071;52.544;13.374;2023-10-31T08:25:00;14.60;99.90
2130;DHT22;1071;52.544;13.374;2023-10-31T08:27:28;14.60;99.90
2130;DHT22;1071;52.544;13.374;2023-10-31T08:29:54;14.60;99.90
2130;DHT22;1071;52.544;13.374;2023-10-31T08:32:21;14.60;99.90
2130;DHT22;1071;52.544;13.374;2023-10-31T08:35:03;14.60;99.90
2130;DHT22;1071;52.544;13.374;2023-10-31T08:37:30;14.60;99.90
2130;DHT22;1071;52.544;13.374;2023-10-31T08:39:58;14.60;99.90
2130;DHT22;1071;52.544;13.374;2023-10-31T08:42:28;14.50;99.90
2130;DHT22;1071;52.544;13.374;2023-10-31T08:44:56;14.60;99.90
2130;DHT22;1071;52.544;13.374;2023-10-31T08:47:22;14.60;99.90
2130;DHT22;1071;52.544;13.374;2023-10-31T08:49:50;14.60;99.90
2130;DHT22;1071;52.544;13.374;2023-10-31T08:52:19;14.60;99.90
2130;DHT22;1071;52.544;13.374;2023-10-31T08:54:50;14.60;99.90
2130;DHT22;1071;52.544;13.374;2023-10-31T08:57:21;14.70;99.90
2130;DHT22;1071;52.544;13.374;2023-10-31T08:59:49;14.70;99.90
2130;DHT22;1071;52.544;13.374;2023-10-31T09:02:39;14.70;99.90
2130;DHT22;1071;52.544;13.374;2023-10-31T09:05:07;14.70;99.90
2130;DHT22;1071;52.544;13.374;2023-10-31T09:07:34;14.70;99.90
2130;DHT22;1071;52.544;13.374;2023-10-31T09:10:01;14.70;99.90
2130;DHT22;1071;52.544;13.374;2023-10-31T09:12:36;14.70;99.90
2130;DHT22;1071;52.544;13.374;2023-10-31T09:15:11;14.70;99.90
2130;DHT22;1071;52.544;13.374;2023-10-31T09:17:45;14.70;99.90
2130;DHT22;1071;52.544;13.374;2023-10-31T09:20:12;14.70;99.90
2130;DHT22;1071;52.544;13.374;2023-10-31T09:22:39;14.70;99.90
2130;DHT22;1071;52.544;13.374;2023-10-31T09:25:07;14.70;99.90
2130;DHT22;1071;52.544;13.374;2023-10-31T09:27:40;14.70;99.90
2130;DHT22;1071;52.544;13.374;2023-10-31T09:30:08;14.80;99.90
2130;DHT22;1071;52.544;13.374;2023-10-31T09:32:37;14.80;99.90
2130;DHT22;1071;52.544;13.374;2023-10-31T09:35:04;14.90;99.90
2130;DHT22;1071;52.544;13.374;2023-10-31T09:37:33;14.90;99.90
2130;DHT22;1071;52.544;13.374;2023-10-31T09:40:00;14.80;99.90
2130;DHT22;1071;52.544;13.374;2023-10-31T09:42:27;14.80;99.90
2130;DHT22;1071;52.544;13.374;2023-10-31T09:45:00;14.80;99.90
2130;DHT22;1071;52.544;13.374;2023-10-31T09:47:30;14.80;99.90
2130;DHT22;1071;52.544;13.374;2023-10-31T09:49:57;14.80;99.90
2130;DHT22;1071;52.544;13.374;2023-10-31T09:52:27;14.80;99.90
2130;DHT22;1071;52.544;13.374;2023-10-31T09:54:59;14.80;99.90
2130;DHT22;1071;52.544;13.374;2023-10-31T09:57:27;14.90;99.90
2130;DHT22;1071;52.544;13.374;2023-10-31T09:59:57;14.90;99.90
2130;DHT22;1071;52.544;13.374;2023-10-31T10:02:25;14.90;99.90
2130;DHT22;1071;52.544;13.374;2023-10-31T10:04:52;14.90;99.90
2130;DHT22;1071;52.544;13.374;2023-10-31T10:07:32;14.90;99.90
2130;DHT22;1071;52.544;13.374;2023-10-31T10:10:15;14.90;99.90
2130;DHT22;1071;52.544;13.374;2023-10-31T10:12:42;14.90;99.90
2130;DHT22;1071;52.544;13.374;2023-10-31T10:15:10;14.90;99.90
2130;DHT22;1071;52.544;13.374;2023-10-31T10:17:37;14.90;99.90
2130;DHT22;1071;52.544;13.374;2023-10-31T10:20:06;14.90;99.90
2130;DHT22;1071;52.544;13.374;2023-10-31T10:22:36;14.90;99.90
2130;DHT22;1071;52.544;13.374;2023-10-31T10:25:12;14.90;99.90
2130;DHT22;1071;52.544;13.374;2023-10-31T10:27:42;15.00;99.90
2130;DHT22;1071;52.544;13.374;2023-10-31T10:30:17;15.00;99.90
2130;DHT22;1071;52.544;13.374;2023-10-31T10:32:46;15.00;99.90
2130;DHT22;1071;52.544;13.374;2023-10-31T10:35:19;15.10;99.90
2130;DHT22;1071;52.544;13.374;2023-10-31T10:37:48;15.10;99.90
2130;DHT22;1071;52.544;13.374;2023-10-31T10:40:23;15.10;99.90
2130;DHT22;1071;52.544;13.374;2023-10-31T10:43:02;15.10;99.90
2130;DHT22;1071;52.544;13.374;2023-10-31T10:45:38;15.10;99.90
2130;DHT22;1071;52.544;13.374;2023-10-31T10:48:11;15.10;99.90
2130;DHT22;1071;52.544;13.374;2023-10-31T10:50:41;15.10;99.90
2130;DHT22;1071;52.544;13.374;2023-10-31T10:53:14;15.10;99.90
2130;DHT22;1071;52.544;13.374;2023-10-31T10:55:45;15.20;99.90
2130;DHT22;1071;52.544;13.374;2023-10-31T10:58:19;15.20;99.90
2130;DHT22;1071;52.544;13.374;2023-10-31T11:00:49;15.20;99.90
2130;DHT22;1071;52.544;13.374;2023-10-31T11:03:17;15.30;99.90
2130;DHT22;1071;52.544;13.374;2023-10-31T11:05:45;15.30;99.90
2130;DHT22;1071;52.544;13.374;2023-10-31T11:08:13;15.20;99.90
2130;DHT22;1071;52.544;13.374;2023-10-31T11:10:41;15.20;99.90
2130;DHT22;1071;52.544;13.374;2023-10-31T11:13:09;15.20;99.90
2130;DHT22;1071;52.544;13.374;2023-10-31T11:15:40;15.20;99.90
2130;DHT22;1071;52.544;13.374;2023-10-31T11:18:12;15.30;99.90
2130;DHT22;1071;52.544;13.374;2023-10-31T11:20:39;15.30;99.90
2130;DHT22;1071;52.544;13.374;2023-10-31T11:23:24;15.30;99.90
2130;DHT22;1071;52.544;13.374;2023-10-31T11:26:08;15.40;99.90
2130;DHT22;1071;52.544;13.374;2023-10-31T11:28:36;15.30;99.90
2130;DHT22;1071;52.544;13.374;2023-10-31T11:31:03;15.40;99.90
2130;DHT22;1071;52.544;13.374;2023-10-31T11:33:39;15.40;99.90
2130;DHT22;1071;52.544;13.374;2023-10-31T11:36:11;15.30;99.90
2130;DHT22;1071;52.544;13.374;2023-10-31T11:38:44;15.30;99.90
2130;DHT22;1071;52.544;13.374;2023-10-31T11:41:11;15.30;99.90
2130;DHT22;1071;52.544;13.374;2023-10-31T11:43:51;15.20;99.90
2130;DHT22;1071;52.544;13.374;2023-10-31T11:46:19;15.20;99.90
2130;DHT22;1071;52.544;13.374;2023-10-31T11:52:03;15.20;99.90
2130;DHT22;1071;52.544;13.374;2023-10-31T11:54:42;15.10;99.90
2130;DHT22;1071;52.544;13.374;2023-10-31T11:57:09;15.10;99.90
2130;DHT22;1071;52.544;13.374;2023-10-31T11:59:36;15.10;99.90
2130;DHT22;1071;52.544;13.374;2023-10-31T12:02:15;15.10;99.90
2130;DHT22;1071;52.544;13.374;2023-10-31T12:04:44;15.20;99.90
2130;DHT22;1071;52.544;13.374;2023-10-31T12:07:11;15.20;99.90
2130;DHT22;1071;52.544;13.374;2023-10-31T12:09:46;15.20;99.90
2130;DHT22;1071;52.544;13.374;2023-10-31T12:12:15;15.30;99.90
2130;DHT22;1071;52.544;13.374;2023-10-31T12:14:45;15.30;99.90
2130;DHT22;1071;52.544;13.374;2023-10-31T12:17:12;15.30;99.90
2130;DHT22;1071;52.544;13.374;2023-10-31T12:19:39;15.30;99.90
2130;DHT22;1071;52.544;13.374;2023-10-31T12:22:14;15.30;99.90
2130;DHT22;1071;52.544;13.374;2023-10-31T12:24:41;15.30;99.90
2130;DHT22;1071;52.544;13.374;2023-10-31T12:27:11;15.30;99.90
2130;DHT22;1071;52.544;13.374;2023-10-31T12:29:38;15.40;99.90
2130;DHT22;1071;52.544;13.374;2023-10-31T12:32:12;15.40;99.90
2130;DHT22;1071;52.544;13.374;2023-10-31T12:34:43;15.40;99.90
2130;DHT22;1071;52.544;13.374;2023-10-31T12:37:17;15.40;99.90
2130;DHT22;1071;52.544;13.374;2023-10-31T12:39:44;15.50;99.90
2130;DHT22;1071;52.544;13.374;2023-10-31T12:42:18;15.50;99.90
2130;DHT22;1071;52.544;13.374;2023-10-31T12:44:54;15.50;99.90
2130;DHT22;1071;52.544;13.374;2023-10-31T12:47:45;15.40;99.90
2130;DHT22;1071;52.544;13.374;2023-10-31T12:50:25;15.50;99.90
2130;DHT22;1071;52.544;13.374;2023-10-31T12:53:57;15.50;99.90
2130;DHT22;1071;52.544;13.374;2023-10-31T12:56:50;15.50;99.90
2130;DHT22;1071;52.544;13.374;2023-10-31T12:59:19;15.50;99.90
2130;DHT22;1071;52.544;13.374;2023-10-31T13:01:46;15.50;99.90
2130;DHT22;1071;52.544;13.374;2023-10-31T13:04:24;15.40;99.90
2130;DHT22;1071;52.544;13.374;2023-10-31T13:06:58;15.40;99.90
2130;DHT22;1071;52.544;13.374;2023-10-31T13:09:38;15.40;99.90
2130;DHT22;1071;52.544;13.374;2023-10-31T13:12:08;15.30;99.90
2130;DHT22;1071;52.544;13.374;2023-10-31T13:14:36;15.30;99.90
2130;DHT22;1071;52.544;13.374;2023-10-31T13:17:05;15.30;99.90
2130;DHT22;1071;52.544;13.374;2023-10-31T13:19:45;15.30;99.90
2130;DHT22;1071;52.544;13.374;2023-10-31T13:22:22;15.30;99.90
2130;DHT22;1071;52.544;13.374;2023-10-31T13:24:51;15.30;99.90
2130;DHT22;1071;52.544;13.374;2023-10-31T13:27:18;15.30;99.90
2130;DHT22;1071;52.544;13.374;2023-10-31T13:29:46;15.30;99.90
2130;DHT22;1071;52.544;13.374;2023-10-31T13:32:18;15.30;99.90
2130;DHT22;1071;52.544;13.374;2023-10-31T13:34:46;15.30;99.90
2130;DHT22;1071;52.544;13.374;2023-10-31T13:37:13;15.30;99.90
2130;DHT22;1071;52.544;13.374;2023-10-31T13:39:40;15.20;99.90
2130;DHT22;1071;52.544;13.374;2023-10-31T13:42:11;15.30;99.90
2130;DHT22;1071;52.544;13.374;2023-10-31T13:44:43;15.30;99.90
2130;DHT22;1071;52.544;13.374;2023-10-31T13:47:11;15.20;99.90
2130;DHT22;1071;52.544;13.374;2023-10-31T13:49:40;15.30;99.90
2130;DHT22;1071;52.544;13.374;2023-10-31T13:52:07;15.30;99.90
2130;DHT22;1071;52.544;13.374;2023-10-31T13:54:34;15.20;99.90
2130;DHT22;1071;52.544;13.374;2023-10-31T13:57:02;15.20;99.90
2130;DHT22;1071;52.544;13.374;2023-10-31T13:59:30;15.20;99.90
2130;DHT22;1071;52.544;13.374;2023-10-31T14:02:00;15.20;99.90
2130;DHT22;1071;52.544;13.374;2023-10-31T14:04:26;15.20;99.90
2130;DHT22;1071;52.544;13.374;2023-10-31T14:06:57;15.10;99.90
2130;DHT22;1071;52.544;13.374;2023-10-31T14:09:31;15.10;99.90
2130;DHT22;1071;52.544;13.374;2023-10-31T14:12:06;15.00;99.90
2130;DHT22;1071;52.544;13.374;2023-10-31T14:14:37;15.00;99.90
2130;DHT22;1071;52.544;13.374;2023-10-31T14:17:04;14.90;99.90
2130;DHT22;1071;52.544;13.374;2023-10-31T14:19:31;14.90;99.90
2130;DHT22;1071;52.544;13.374;2023-10-31T14:21:58;14.90;99.90
2130;DHT22;1071;52.544;13.374;2023-10-31T14:24:26;14.80;99.90
2130;DHT22;1071;52.544;13.374;2023-10-31T14:26:54;14.80;99.90
2130;DHT22;1071;52.544;13.374;2023-10-31T14:29:21;14.80;99.90
2130;DHT22;1071;52.544;13.374;2023-10-31T14:31:50;14.80;99.90
2130;DHT22;1071;52.544;13.374;2023-10-31T14:34:19;14.70;99.90
2130;DHT22;1071;52.544;13.374;2023-10-31T14:37:12;14.70;99.90
2130;DHT22;1071;52.544;13.374;2023-10-31T14:39:43;14.60;99.90
2130;DHT22;1071;52.544;13.374;2023-10-31T14:42:10;14.60;99.90
2130;DHT22;1071;52.544;13.374;2023-10-31T14:44:59;14.60;99.90
2130;DHT22;1071;52.544;13.374;2023-10-31T14:47:34;14.50;99.90
2130;DHT22;1071;52.544;13.374;2023-10-31T14:50:11;14.50;99.90
2130;DHT22;1071;52.544;13.374;2023-10-31T14:52:38;14.50;99.90
2130;DHT22;1071;52.544;13.374;2023-10-31T14:55:07;14.40;99.90
2130;DHT22;1071;52.544;13.374;2023-10-31T14:57:53;14.40;99.90
2130;DHT22;1071;52.544;13.374;2023-10-31T15:00:25;14.30;99.90
2130;DHT22;1071;52.544;13.374;2023-10-31T15:03:04;14.30;99.90
2130;DHT22;1071;52.544;13.374;2023-10-31T15:05:35;14.30;99.90
2130;DHT22;1071;52.544;13.374;2023-10-31T15:08:02;14.20;99.90
2130;DHT22;1071;52.544;13.374;2023-10-31T15:10:29;14.20;99.90
2130;DHT22;1071;52.544;13.374;2023-10-31T15:12:57;14.20;99.90
2130;DHT22;1071;52.544;13.374;2023-10-31T15:15:28;14.20;99.90
2130;DHT22;1071;52.544;13.374;2023-10-31T15:17:57;14.20;99.90
2130;DHT22;1071;52.544;13.374;2023-10-31T15:20:39;14.10;99.90
2130;DHT22;1071;52.544;13.374;2023-10-31T15:23:06;14.10;99.90
2130;DHT22;1071;52.544;13.374;2023-10-31T15:25:35;14.10;99.90
2130;DHT22;1071;52.544;13.374;2023-10-31T15:28:04;14.10;99.90
2130;DHT22;1071;52.544;13.374;2023-10-31T15:30:33;14.10;99.90
2130;DHT22;1071;52.544;13.374;2023-10-31T15:33:00;14.10;99.90
2130;DHT22;1071;52.544;13.374;2023-10-31T15:35:27;14.00;99.90
2130;DHT22;1071;52.544;13.374;2023-10-31T15:37:56;14.00;99.90
2130;DHT22;1071;52.544;13.374;2023-10-31T15:40:25;14.00;99.90
2130;DHT22;1071;52.544;13.374;2023-10-31T15:42:54;13.90;99.90
2130;DHT22;1071;52.544;13.374;2023-10-31T15:45:21;14.00;99.90
2130;DHT22;1071;52.544;13.374;2023-10-31T15:47:48;14.00;99.90
2130;DHT22;1071;52.544;13.374;2023-10-31T15:50:56;14.00;99.90
2130;DHT22;1071;52.544;13.374;2023-10-31T15:53:53;13.90;99.90
2130;DHT22;1071;52.544;13.374;2023-10-31T15:56:23;13.90;99.90
2130;DHT22;1071;52.544;13.374;2023-10-31T15:58:53;13.90;99.90
2130;DHT22;1071;52.544;13.374;2023-10-31T16:01:22;13.90;99.90
2130;DHT22;1071;52.544;13.374;2023-10-31T16:04:23;13.90;99.90
2130;DHT22;1071;52.544;13.374;2023-10-31T16:07:05;13.90;99.90